sensor_id;sensor_type;location;lat;lon;timestamp;P1;durP1;ratioP1;P2;durP2;ratioP2
66087;SDS011;52872;52.994;6.940;2023-01-13T00:01:21;15.90;;;3.13;;
66087;SDS011;52872;52.994;6.940;2023-01-13T00:03:50;14.35;;;2.75;;
66087;SDS011;52872;52.994;6.940;2023-01-13T00:06:18;13.32;;;2.95;;
66087;SDS011;52872;52.994;6.940;2023-01-13T00:08:47;15.20;;;2.90;;
66087;SDS011;52872;52.994;6.940;2023-01-13T00:11:15;16.35;;;3.63;;
66087;SDS011;52872;52.994;6.940;2023-01-13T00:13:43;17.85;;;4.10;;
66087;SDS011;52872;52.994;6.940;2023-01-13T00:16:11;18.52;;;3.45;;
66087;SDS011;52872;52.994;6.940;2023-01-13T00:18:43;9.43;;;3.00;;
66087;SDS011;52872;52.994;6.940;2023-01-13T00:23:42;14.23;;;2.90;;
66087;SDS011;52872;52.994;6.940;2023-01-13T00:26:17;19.83;;;3.78;;
66087;SDS011;52872;52.994;6.940;2023-01-13T00:28:45;17.85;;;3.60;;
66087;SDS011;52872;52.994;6.940;2023-01-13T00:31:14;17.52;;;3.78;;
66087;SDS011;52872;52.994;6.940;2023-01-13T00:33:44;20.75;;;4.30;;
66087;SDS011;52872;52.994;6.940;2023-01-13T00:36:14;26.58;;;3.97;;
66087;SDS011;52872;52.994;6.940;2023-01-13T00:38:42;20.73;;;3.58;;
66087;SDS011;52872;52.994;6.940;2023-01-13T00:41:14;26.45;;;4.15;;
66087;SDS011;52872;52.994;6.940;2023-01-13T00:43:42;19.67;;;3.63;;
66087;SDS011;52872;52.994;6.940;2023-01-13T00:46:10;21.85;;;4.70;;
66087;SDS011;52872;52.994;6.940;2023-01-13T00:48:39;26.42;;;3.92;;
66087;SDS011;52872;52.994;6.940;2023-01-13T00:51:07;30.92;;;4.90;;
66087;SDS011;52872;52.994;6.940;2023-01-13T00:53:39;22.15;;;4.03;;
66087;SDS011;52872;52.994;6.940;2023-01-13T00:56:20;21.58;;;4.47;;
66087;SDS011;52872;52.994;6.940;2023-01-13T00:59:07;22.85;;;3.88;;
66087;SDS011;52872;52.994;6.940;2023-01-13T01:01:36;25.88;;;7.03;;
66087;SDS011;52872;52.994;6.940;2023-01-13T01:04:03;21.80;;;4.63;;
66087;SDS011;52872;52.994;6.940;2023-01-13T01:06:31;23.52;;;5.00;;
66087;SDS011;52872;52.994;6.940;2023-01-13T01:08:58;27.48;;;4.53;;
66087;SDS011;52872;52.994;6.940;2023-01-13T01:11:26;27.95;;;5.32;;
66087;SDS011;52872;52.994;6.940;2023-01-13T01:13:55;32.70;;;5.85;;
66087;SDS011;52872;52.994;6.940;2023-01-13T01:16:24;18.50;;;4.30;;
66087;SDS011;52872;52.994;6.940;2023-01-13T01:18:53;23.48;;;5.00;;
66087;SDS011;52872;52.994;6.940;2023-01-13T01:21:21;26.63;;;4.53;;
66087;SDS011;52872;52.994;6.940;2023-01-13T01:23:50;29.15;;;5.95;;
66087;SDS011;52872;52.994;6.940;2023-01-13T01:26:20;29.30;;;5.50;;
66087;SDS011;52872;52.994;6.940;2023-01-13T01:28:49;32.50;;;5.50;;
66087;SDS011;52872;52.994;6.940;2023-01-13T01:31:19;24.67;;;5.10;;
66087;SDS011;52872;52.994;6.940;2023-01-13T01:33:48;25.90;;;4.38;;
66087;SDS011;52872;52.994;6.940;2023-01-13T01:36:16;29.17;;;6.13;;
66087;SDS011;52872;52.994;6.940;2023-01-13T01:38:44;21.15;;;3.97;;
66087;SDS011;52872;52.994;6.940;2023-01-13T01:41:17;17.55;;;4.30;;
66087;SDS011;52872;52.994;6.940;2023-01-13T01:43:47;24.25;;;4.85;;
66087;SDS011;52872;52.994;6.940;2023-01-13T01:46:25;21.42;;;4.35;;
66087;SDS011;52872;52.994;6.940;2023-01-13T01:48:55;22.00;;;3.42;;
66087;SDS011;52872;52.994;6.940;2023-01-13T01:51:27;23.50;;;4.05;;
66087;SDS011;52872;52.994;6.940;2023-01-13T01:53:58;16.27;;;3.53;;
66087;SDS011;52872;52.994;6.940;2023-01-13T01:56:28;27.42;;;5.53;;
66087;SDS011;52872;52.994;6.940;2023-01-13T01:58:56;23.83;;;3.85;;
66087;SDS011;52872;52.994;6.940;2023-01-13T02:01:23;20.38;;;3.42;;
66087;SDS011;52872;52.994;6.940;2023-01-13T02:04:00;23.80;;;4.13;;
66087;SDS011;52872;52.994;6.940;2023-01-13T02:06:32;20.77;;;4.45;;
66087;SDS011;52872;52.994;6.940;2023-01-13T02:08:59;23.33;;;4.72;;
66087;SDS011;52872;52.994;6.940;2023-01-13T02:11:30;19.35;;;3.67;;
66087;SDS011;52872;52.994;6.940;2023-01-13T02:14:19;21.52;;;4.00;;
66087;SDS011;52872;52.994;6.940;2023-01-13T02:22:10;21.50;;;4.00;;
66087;SDS011;52872;52.994;6.940;2023-01-13T02:33:49;18.05;;;3.72;;
66087;SDS011;52872;52.994;6.940;2023-01-13T02:36:26;21.10;;;3.75;;
66087;SDS011;52872;52.994;6.940;2023-01-13T02:39:08;22.40;;;3.80;;
66087;SDS011;52872;52.994;6.940;2023-01-13T02:47:36;17.35;;;3.97;;
66087;SDS011;52872;52.994;6.940;2023-01-13T02:50:09;17.10;;;3.88;;
66087;SDS011;52872;52.994;6.940;2023-01-13T02:52:53;22.52;;;4.47;;
66087;SDS011;52872;52.994;6.940;2023-01-13T02:55:28;29.10;;;5.03;;
66087;SDS011;52872;52.994;6.940;2023-01-13T02:57:56;18.67;;;3.92;;
66087;SDS011;52872;52.994;6.940;2023-01-13T03:00:27;25.15;;;4.15;;
66087;SDS011;52872;52.994;6.940;2023-01-13T03:02:55;29.05;;;3.83;;
66087;SDS011;52872;52.994;6.940;2023-01-13T03:05:22;29.88;;;5.15;;
66087;SDS011;52872;52.994;6.940;2023-01-13T03:21:11;21.42;;;4.03;;
66087;SDS011;52872;52.994;6.940;2023-01-13T03:23:57;21.60;;;4.25;;
66087;SDS011;52872;52.994;6.940;2023-01-13T03:29:01;27.92;;;4.32;;
66087;SDS011;52872;52.994;6.940;2023-01-13T03:31:31;25.35;;;3.35;;
66087;SDS011;52872;52.994;6.940;2023-01-13T03:34:06;22.92;;;4.30;;
66087;SDS011;52872;52.994;6.940;2023-01-13T03:36:39;26.20;;;4.45;;
66087;SDS011;52872;52.994;6.940;2023-01-13T03:39:08;25.92;;;4.45;;
66087;SDS011;52872;52.994;6.940;2023-01-13T03:41:41;20.48;;;4.40;;
66087;SDS011;52872;52.994;6.940;2023-01-13T03:44:28;23.10;;;4.43;;
66087;SDS011;52872;52.994;6.940;2023-01-13T03:52:32;25.83;;;4.70;;
66087;SDS011;52872;52.994;6.940;2023-01-13T03:55:05;21.52;;;5.28;;
66087;SDS011;52872;52.994;6.940;2023-01-13T03:57:54;28.90;;;4.88;;
66087;SDS011;52872;52.994;6.940;2023-01-13T04:00:30;25.30;;;4.15;;
66087;SDS011;52872;52.994;6.940;2023-01-13T04:03:13;25.17;;;4.75;;
66087;SDS011;52872;52.994;6.940;2023-01-13T04:05:46;27.67;;;3.63;;
66087;SDS011;52872;52.994;6.940;2023-01-13T04:08:25;21.17;;;3.97;;
66087;SDS011;52872;52.994;6.940;2023-01-13T04:10:55;21.48;;;3.92;;
66087;SDS011;52872;52.994;6.940;2023-01-13T04:13:35;27.83;;;5.45;;
66087;SDS011;52872;52.994;6.940;2023-01-13T04:16:08;25.38;;;4.32;;
66087;SDS011;52872;52.994;6.940;2023-01-13T04:18:38;19.98;;;4.80;;
66087;SDS011;52872;52.994;6.940;2023-01-13T04:21:05;23.30;;;4.80;;
66087;SDS011;52872;52.994;6.940;2023-01-13T04:23:33;23.92;;;4.95;;
66087;SDS011;52872;52.994;6.940;2023-01-13T04:26:00;23.20;;;4.45;;
66087;SDS011;52872;52.994;6.940;2023-01-13T04:28:27;19.65;;;3.97;;
66087;SDS011;52872;52.994;6.940;2023-01-13T04:30:54;21.08;;;4.20;;
66087;SDS011;52872;52.994;6.940;2023-01-13T04:33:21;28.00;;;5.20;;
66087;SDS011;52872;52.994;6.940;2023-01-13T04:35:48;20.40;;;4.45;;
66087;SDS011;52872;52.994;6.940;2023-01-13T04:38:16;21.67;;;4.43;;
66087;SDS011;52872;52.994;6.940;2023-01-13T04:40:44;23.90;;;5.20;;
66087;SDS011;52872;52.994;6.940;2023-01-13T04:43:11;28.00;;;5.18;;
66087;SDS011;52872;52.994;6.940;2023-01-13T04:45:41;18.65;;;4.55;;
66087;SDS011;52872;52.994;6.940;2023-01-13T04:48:08;17.55;;;3.35;;
66087;SDS011;52872;52.994;6.940;2023-01-13T04:50:36;25.13;;;4.53;;
66087;SDS011;52872;52.994;6.940;2023-01-13T04:53:03;29.95;;;4.60;;
66087;SDS011;52872;52.994;6.940;2023-01-13T04:55:30;27.90;;;4.70;;
66087;SDS011;52872;52.994;6.940;2023-01-13T04:58:07;29.20;;;4.53;;
66087;SDS011;52872;52.994;6.940;2023-01-13T05:00:35;27.90;;;4.28;;
66087;SDS011;52872;52.994;6.940;2023-01-13T05:03:03;21.90;;;4.72;;
66087;SDS011;52872;52.994;6.940;2023-01-13T05:05:30;26.75;;;4.88;;
66087;SDS011;52872;52.994;6.940;2023-01-13T05:07:57;29.35;;;5.03;;
66087;SDS011;52872;52.994;6.940;2023-01-13T05:10:25;27.77;;;3.75;;
66087;SDS011;52872;52.994;6.940;2023-01-13T05:12:52;21.83;;;3.45;;
66087;SDS011;52872;52.994;6.940;2023-01-13T05:15:38;20.88;;;3.72;;
66087;SDS011;52872;52.994;6.940;2023-01-13T05:18:26;23.75;;;4.88;;
66087;SDS011;52872;52.994;6.940;2023-01-13T05:20:54;29.50;;;4.95;;
66087;SDS011;52872;52.994;6.940;2023-01-13T05:23:21;23.38;;;4.57;;
66087;SDS011;52872;52.994;6.940;2023-01-13T05:26:07;21.50;;;3.67;;
66087;SDS011;52872;52.994;6.940;2023-01-13T05:28:34;26.88;;;4.25;;
66087;SDS011;52872;52.994;6.940;2023-01-13T05:31:01;22.67;;;4.05;;
66087;SDS011;52872;52.994;6.940;2023-01-13T05:33:28;21.20;;;4.03;;
66087;SDS011;52872;52.994;6.940;2023-01-13T05:35:55;25.30;;;5.07;;
66087;SDS011;52872;52.994;6.940;2023-01-13T05:38:22;20.17;;;4.00;;
66087;SDS011;52872;52.994;6.940;2023-01-13T05:40:48;19.35;;;3.80;;
66087;SDS011;52872;52.994;6.940;2023-01-13T05:43:34;29.45;;;4.50;;
66087;SDS011;52872;52.994;6.940;2023-01-13T05:46:03;19.58;;;5.00;;
66087;SDS011;52872;52.994;6.940;2023-01-13T05:48:39;23.73;;;4.78;;
66087;SDS011;52872;52.994;6.940;2023-01-13T05:51:11;25.65;;;4.72;;
66087;SDS011;52872;52.994;6.940;2023-01-13T05:53:38;18.92;;;4.03;;
66087;SDS011;52872;52.994;6.940;2023-01-13T05:56:06;23.92;;;5.20;;
66087;SDS011;52872;52.994;6.940;2023-01-13T05:58:34;21.42;;;3.45;;
66087;SDS011;52872;52.994;6.940;2023-01-13T06:01:02;17.95;;;3.30;;
66087;SDS011;52872;52.994;6.940;2023-01-13T06:03:31;16.25;;;3.75;;
66087;SDS011;52872;52.994;6.940;2023-01-13T06:05:58;22.20;;;3.45;;
66087;SDS011;52872;52.994;6.940;2023-01-13T06:08:27;15.95;;;3.38;;
66087;SDS011;52872;52.994;6.940;2023-01-13T06:10:55;18.00;;;3.33;;
66087;SDS011;52872;52.994;6.940;2023-01-13T06:13:22;21.08;;;3.47;;
66087;SDS011;52872;52.994;6.940;2023-01-13T06:15:50;18.73;;;3.35;;
66087;SDS011;52872;52.994;6.940;2023-01-13T06:18:21;19.60;;;3.65;;
66087;SDS011;52872;52.994;6.940;2023-01-13T06:20:48;21.88;;;3.30;;
66087;SDS011;52872;52.994;6.940;2023-01-13T06:23:15;18.65;;;3.70;;
66087;SDS011;52872;52.994;6.940;2023-01-13T06:26:03;15.15;;;3.13;;
66087;SDS011;52872;52.994;6.940;2023-01-13T06:28:35;15.55;;;3.03;;
66087;SDS011;52872;52.994;6.940;2023-01-13T06:31:02;19.08;;;3.53;;
66087;SDS011;52872;52.994;6.940;2023-01-13T06:33:34;14.57;;;3.53;;
66087;SDS011;52872;52.994;6.940;2023-01-13T06:36:08;16.88;;;2.92;;
66087;SDS011;52872;52.994;6.940;2023-01-13T06:38:39;15.48;;;3.97;;
66087;SDS011;52872;52.994;6.940;2023-01-13T06:41:11;14.93;;;3.37;;
66087;SDS011;52872;52.994;6.940;2023-01-13T06:43:39;16.63;;;4.78;;
66087;SDS011;52872;52.994;6.940;2023-01-13T06:46:06;14.95;;;2.90;;
66087;SDS011;52872;52.994;6.940;2023-01-13T06:48:33;13.30;;;3.35;;
66087;SDS011;52872;52.994;6.940;2023-01-13T06:51:01;18.27;;;4.40;;
66087;SDS011;52872;52.994;6.940;2023-01-13T06:53:29;14.63;;;3.65;;
66087;SDS011;52872;52.994;6.940;2023-01-13T06:55:56;14.73;;;4.22;;
66087;SDS011;52872;52.994;6.940;2023-01-13T06:58:23;20.65;;;4.32;;
66087;SDS011;52872;52.994;6.940;2023-01-13T07:00:50;14.90;;;3.63;;
66087;SDS011;52872;52.994;6.940;2023-01-13T07:03:18;12.77;;;3.15;;
66087;SDS011;52872;52.994;6.940;2023-01-13T07:05:52;13.73;;;3.00;;
66087;SDS011;52872;52.994;6.940;2023-01-13T07:08:21;11.43;;;3.33;;
66087;SDS011;52872;52.994;6.940;2023-01-13T07:10:48;13.40;;;3.65;;
66087;SDS011;52872;52.994;6.940;2023-01-13T07:13:16;14.13;;;3.40;;
66087;SDS011;52872;52.994;6.940;2023-01-13T07:16:03;10.02;;;2.75;;
66087;SDS011;52872;52.994;6.940;2023-01-13T07:18:31;14.20;;;2.72;;
66087;SDS011;52872;52.994;6.940;2023-01-13T07:21:00;14.10;;;3.08;;
66087;SDS011;52872;52.994;6.940;2023-01-13T07:23:30;12.25;;;3.00;;
66087;SDS011;52872;52.994;6.940;2023-01-13T07:25:59;14.93;;;2.95;;
66087;SDS011;52872;52.994;6.940;2023-01-13T07:28:27;14.20;;;2.97;;
66087;SDS011;52872;52.994;6.940;2023-01-13T07:30:55;17.58;;;2.97;;
66087;SDS011;52872;52.994;6.940;2023-01-13T07:33:22;12.75;;;3.15;;
66087;SDS011;52872;52.994;6.940;2023-01-13T07:35:57;11.57;;;2.63;;
66087;SDS011;52872;52.994;6.940;2023-01-13T07:38:26;12.75;;;2.60;;
66087;SDS011;52872;52.994;6.940;2023-01-13T07:40:53;16.40;;;3.25;;
66087;SDS011;52872;52.994;6.940;2023-01-13T07:43:20;14.63;;;3.35;;
66087;SDS011;52872;52.994;6.940;2023-01-13T07:46:03;11.00;;;3.00;;
66087;SDS011;52872;52.994;6.940;2023-01-13T07:48:32;15.70;;;3.83;;
66087;SDS011;52872;52.994;6.940;2023-01-13T07:51:03;13.02;;;2.45;;
66087;SDS011;52872;52.994;6.940;2023-01-13T07:53:32;14.88;;;3.00;;
66087;SDS011;52872;52.994;6.940;2023-01-13T07:56:00;14.07;;;2.75;;
66087;SDS011;52872;52.994;6.940;2023-01-13T07:58:28;10.75;;;2.88;;
66087;SDS011;52872;52.994;6.940;2023-01-13T08:00:55;13.02;;;2.53;;
66087;SDS011;52872;52.994;6.940;2023-01-13T08:03:23;12.38;;;2.58;;
66087;SDS011;52872;52.994;6.940;2023-01-13T08:05:51;13.18;;;2.53;;
66087;SDS011;52872;52.994;6.940;2023-01-13T08:08:18;13.77;;;3.70;;
66087;SDS011;52872;52.994;6.940;2023-01-13T08:10:45;10.40;;;2.53;;
66087;SDS011;52872;52.994;6.940;2023-01-13T08:13:16;10.70;;;2.83;;
66087;SDS011;52872;52.994;6.940;2023-01-13T08:15:46;16.88;;;3.30;;
66087;SDS011;52872;52.994;6.940;2023-01-13T08:18:15;17.52;;;2.83;;
66087;SDS011;52872;52.994;6.940;2023-01-13T08:20:45;14.38;;;3.33;;
66087;SDS011;52872;52.994;6.940;2023-01-13T08:23:14;16.85;;;3.03;;
66087;SDS011;52872;52.994;6.940;2023-01-13T08:25:41;14.25;;;2.78;;
66087;SDS011;52872;52.994;6.940;2023-01-13T08:28:08;15.18;;;3.28;;
66087;SDS011;52872;52.994;6.940;2023-01-13T08:30:35;10.93;;;2.90;;
66087;SDS011;52872;52.994;6.940;2023-01-13T08:33:05;12.80;;;2.80;;
66087;SDS011;52872;52.994;6.940;2023-01-13T08:35:37;13.57;;;2.63;;
66087;SDS011;52872;52.994;6.940;2023-01-13T08:38:05;15.07;;;3.15;;
66087;SDS011;52872;52.994;6.940;2023-01-13T08:40:33;20.33;;;3.38;;
66087;SDS011;52872;52.994;6.940;2023-01-13T08:43:00;16.17;;;3.00;;
66087;SDS011;52872;52.994;6.940;2023-01-13T08:45:27;15.27;;;2.63;;
66087;SDS011;52872;52.994;6.940;2023-01-13T08:47:54;16.25;;;2.40;;
66087;SDS011;52872;52.994;6.940;2023-01-13T08:50:21;9.38;;;2.20;;
66087;SDS011;52872;52.994;6.940;2023-01-13T08:52:48;19.17;;;3.95;;
66087;SDS011;52872;52.994;6.940;2023-01-13T08:55:16;13.77;;;2.83;;
66087;SDS011;52872;52.994;6.940;2023-01-13T08:57:43;15.95;;;3.58;;
66087;SDS011;52872;52.994;6.940;2023-01-13T09:00:10;15.55;;;3.22;;
66087;SDS011;52872;52.994;6.940;2023-01-13T09:02:38;18.33;;;3.42;;
66087;SDS011;52872;52.994;6.940;2023-01-13T09:05:05;17.55;;;3.70;;
66087;SDS011;52872;52.994;6.940;2023-01-13T09:07:34;14.48;;;2.40;;
66087;SDS011;52872;52.994;6.940;2023-01-13T09:10:04;20.10;;;3.40;;
66087;SDS011;52872;52.994;6.940;2023-01-13T09:12:32;11.88;;;3.15;;
66087;SDS011;52872;52.994;6.940;2023-01-13T09:15:18;17.35;;;3.63;;
66087;SDS011;52872;52.994;6.940;2023-01-13T09:17:45;16.33;;;2.75;;
66087;SDS011;52872;52.994;6.940;2023-01-13T09:20:13;17.75;;;3.22;;
66087;SDS011;52872;52.994;6.940;2023-01-13T09:22:40;18.70;;;3.33;;
66087;SDS011;52872;52.994;6.940;2023-01-13T09:25:07;19.38;;;4.18;;
66087;SDS011;52872;52.994;6.940;2023-01-13T09:27:34;18.75;;;3.65;;
66087;SDS011;52872;52.994;6.940;2023-01-13T09:30:02;20.73;;;3.70;;
66087;SDS011;52872;52.994;6.940;2023-01-13T09:32:29;16.98;;;2.97;;
66087;SDS011;52872;52.994;6.940;2023-01-13T09:34:56;14.02;;;2.97;;
66087;SDS011;52872;52.994;6.940;2023-01-13T09:39:57;16.98;;;2.88;;
66087;SDS011;52872;52.994;6.940;2023-01-13T09:42:27;20.15;;;3.80;;
66087;SDS011;52872;52.994;6.940;2023-01-13T09:45:22;10.40;;;3.00;;
66087;SDS011;52872;52.994;6.940;2023-01-13T09:47:56;12.00;;;2.67;;
66087;SDS011;52872;52.994;6.940;2023-01-13T09:53:20;16.77;;;2.83;;
66087;SDS011;52872;52.994;6.940;2023-01-13T09:55:53;12.10;;;2.67;;
66087;SDS011;52872;52.994;6.940;2023-01-13T09:58:21;13.85;;;2.95;;
66087;SDS011;52872;52.994;6.940;2023-01-13T10:01:08;21.63;;;3.60;;
66087;SDS011;52872;52.994;6.940;2023-01-13T10:03:45;18.75;;;2.90;;
66087;SDS011;52872;52.994;6.940;2023-01-13T10:08:44;19.08;;;4.18;;
66087;SDS011;52872;52.994;6.940;2023-01-13T10:11:15;17.15;;;4.03;;
66087;SDS011;52872;52.994;6.940;2023-01-13T10:14:25;15.70;;;2.75;;
66087;SDS011;52872;52.994;6.940;2023-01-13T10:17:01;16.60;;;3.03;;
66087;SDS011;52872;52.994;6.940;2023-01-13T10:29:56;16.10;;;3.28;;
66087;SDS011;52872;52.994;6.940;2023-01-13T10:32:23;16.55;;;3.85;;
66087;SDS011;52872;52.994;6.940;2023-01-13T10:34:50;13.98;;;3.22;;
66087;SDS011;52872;52.994;6.940;2023-01-13T10:37:23;17.73;;;3.42;;
66087;SDS011;52872;52.994;6.940;2023-01-13T10:39:55;18.70;;;3.03;;
66087;SDS011;52872;52.994;6.940;2023-01-13T10:42:25;15.18;;;3.20;;
66087;SDS011;52872;52.994;6.940;2023-01-13T10:44:53;23.83;;;4.15;;
66087;SDS011;52872;52.994;6.940;2023-01-13T10:47:23;15.02;;;3.90;;
66087;SDS011;52872;52.994;6.940;2023-01-13T10:52:36;18.90;;;3.78;;
66087;SDS011;52872;52.994;6.940;2023-01-13T11:00:43;18.30;;;3.50;;
66087;SDS011;52872;52.994;6.940;2023-01-13T11:03:11;22.80;;;3.92;;
66087;SDS011;52872;52.994;6.940;2023-01-13T11:06:01;17.07;;;2.80;;
66087;SDS011;52872;52.994;6.940;2023-01-13T11:08:30;23.52;;;4.65;;
66087;SDS011;52872;52.994;6.940;2023-01-13T11:11:23;19.17;;;3.60;;
66087;SDS011;52872;52.994;6.940;2023-01-13T11:14:06;21.02;;;4.05;;
66087;SDS011;52872;52.994;6.940;2023-01-13T11:19:53;15.52;;;3.30;;
66087;SDS011;52872;52.994;6.940;2023-01-13T11:22:27;17.85;;;3.63;;
66087;SDS011;52872;52.994;6.940;2023-01-13T11:25:02;17.23;;;2.78;;
66087;SDS011;52872;52.994;6.940;2023-01-13T11:30:14;19.92;;;3.70;;
66087;SDS011;52872;52.994;6.940;2023-01-13T11:35:43;16.15;;;3.55;;
66087;SDS011;52872;52.994;6.940;2023-01-13T11:40:47;19.08;;;4.05;;
66087;SDS011;52872;52.994;6.940;2023-01-13T11:43:18;22.05;;;4.25;;
66087;SDS011;52872;52.994;6.940;2023-01-13T11:45:57;18.38;;;3.13;;
66087;SDS011;52872;52.994;6.940;2023-01-13T11:48:28;14.97;;;2.93;;
66087;SDS011;52872;52.994;6.940;2023-01-13T12:01:47;16.40;;;3.28;;
66087;SDS011;52872;52.994;6.940;2023-01-13T12:04:39;21.95;;;3.63;;
66087;SDS011;52872;52.994;6.940;2023-01-13T12:07:19;18.13;;;3.20;;
66087;SDS011;52872;52.994;6.940;2023-01-13T12:12:50;16.90;;;3.15;;
66087;SDS011;52872;52.994;6.940;2023-01-13T12:21:11;19.42;;;3.60;;
66087;SDS011;52872;52.994;6.940;2023-01-13T12:26:37;15.70;;;3.15;;
66087;SDS011;52872;52.994;6.940;2023-01-13T12:29:15;19.13;;;3.70;;
66087;SDS011;52872;52.994;6.940;2023-01-13T12:31:45;15.32;;;2.78;;
66087;SDS011;52872;52.994;6.940;2023-01-13T12:37:26;17.83;;;3.70;;
66087;SDS011;52872;52.994;6.940;2023-01-13T12:42:51;15.95;;;2.78;;
66087;SDS011;52872;52.994;6.940;2023-01-13T12:45:44;11.85;;;2.42;;
66087;SDS011;52872;52.994;6.940;2023-01-13T12:56:58;14.27;;;2.97;;
66087;SDS011;52872;52.994;6.940;2023-01-13T13:04:42;9.82;;;2.35;;
66087;SDS011;52872;52.994;6.940;2023-01-13T13:09:59;11.38;;;2.80;;
66087;SDS011;52872;52.994;6.940;2023-01-13T13:12:58;12.50;;;2.20;;
66087;SDS011;52872;52.994;6.940;2023-01-13T13:15:45;14.27;;;2.63;;
66087;SDS011;52872;52.994;6.940;2023-01-13T13:20:56;14.48;;;2.65;;
66087;SDS011;52872;52.994;6.940;2023-01-13T13:26:23;11.57;;;2.10;;
66087;SDS011;52872;52.994;6.940;2023-01-13T13:40:46;12.35;;;2.55;;
66087;SDS011;52872;52.994;6.940;2023-01-13T13:43:36;17.48;;;3.65;;
66087;SDS011;52872;52.994;6.940;2023-01-13T13:46:27;12.43;;;3.17;;
66087;SDS011;52872;52.994;6.940;2023-01-13T13:49:14;9.73;;;2.17;;
66087;SDS011;52872;52.994;6.940;2023-01-13T13:54:57;14.15;;;2.47;;
66087;SDS011;52872;52.994;6.940;2023-01-13T13:57:34;11.50;;;2.65;;
66087;SDS011;52872;52.994;6.940;2023-01-13T14:02:45;12.85;;;3.10;;
66087;SDS011;52872;52.994;6.940;2023-01-13T14:07:45;9.02;;;3.00;;
66087;SDS011;52872;52.994;6.940;2023-01-13T14:10:21;10.07;;;2.83;;
66087;SDS011;52872;52.994;6.940;2023-01-13T14:12:53;11.07;;;3.05;;
66087;SDS011;52872;52.994;6.940;2023-01-13T14:15:24;11.18;;;3.60;;
66087;SDS011;52872;52.994;6.940;2023-01-13T14:17:54;10.18;;;2.22;;
66087;SDS011;52872;52.994;6.940;2023-01-13T14:20:21;7.72;;;2.58;;
66087;SDS011;52872;52.994;6.940;2023-01-13T14:22:51;9.02;;;2.92;;
66087;SDS011;52872;52.994;6.940;2023-01-13T14:25:26;10.60;;;2.60;;
66087;SDS011;52872;52.994;6.940;2023-01-13T14:27:57;7.57;;;1.85;;
66087;SDS011;52872;52.994;6.940;2023-01-13T14:30:28;9.73;;;2.28;;
66087;SDS011;52872;52.994;6.940;2023-01-13T14:32:55;7.38;;;2.25;;
66087;SDS011;52872;52.994;6.940;2023-01-13T14:35:22;8.70;;;2.00;;
66087;SDS011;52872;52.994;6.940;2023-01-13T14:37:49;8.25;;;2.28;;
66087;SDS011;52872;52.994;6.940;2023-01-13T14:42:59;8.98;;;2.22;;
66087;SDS011;52872;52.994;6.940;2023-01-13T14:45:27;12.73;;;2.03;;
66087;SDS011;52872;52.994;6.940;2023-01-13T14:47:55;10.55;;;2.00;;
66087;SDS011;52872;52.994;6.940;2023-01-13T14:50:25;6.40;;;1.80;;
66087;SDS011;52872;52.994;6.940;2023-01-13T14:52:59;10.95;;;2.35;;
66087;SDS011;52872;52.994;6.940;2023-01-13T14:55:28;10.15;;;2.85;;
66087;SDS011;52872;52.994;6.940;2023-01-13T15:00:49;8.77;;;2.00;;
66087;SDS011;52872;52.994;6.940;2023-01-13T15:03:19;9.52;;;2.17;;
66087;SDS011;52872;52.994;6.940;2023-01-13T15:05:50;13.38;;;2.65;;
66087;SDS011;52872;52.994;6.940;2023-01-13T15:15:57;9.90;;;2.53;;
66087;SDS011;52872;52.994;6.940;2023-01-13T15:18:26;6.15;;;1.95;;
66087;SDS011;52872;52.994;6.940;2023-01-13T15:20:53;9.65;;;2.35;;
66087;SDS011;52872;52.994;6.940;2023-01-13T15:23:21;9.40;;;1.98;;
66087;SDS011;52872;52.994;6.940;2023-01-13T15:25:48;7.70;;;1.98;;
66087;SDS011;52872;52.994;6.940;2023-01-13T15:28:22;10.65;;;3.55;;
66087;SDS011;52872;52.994;6.940;2023-01-13T15:30:51;8.02;;;2.22;;
66087;SDS011;52872;52.994;6.940;2023-01-13T15:33:21;5.18;;;1.45;;
66087;SDS011;52872;52.994;6.940;2023-01-13T15:35:49;9.23;;;2.00;;
66087;SDS011;52872;52.994;6.940;2023-01-13T15:38:18;9.73;;;2.30;;
66087;SDS011;52872;52.994;6.940;2023-01-13T15:40:47;10.02;;;2.30;;
66087;SDS011;52872;52.994;6.940;2023-01-13T15:43:20;8.10;;;2.30;;
66087;SDS011;52872;52.994;6.940;2023-01-13T15:46:09;8.27;;;2.30;;
66087;SDS011;52872;52.994;6.940;2023-01-13T15:49:02;9.35;;;2.08;;
66087;SDS011;52872;52.994;6.940;2023-01-13T15:51:49;10.20;;;2.67;;
66087;SDS011;52872;52.994;6.940;2023-01-13T15:54:16;8.25;;;2.22;;
66087;SDS011;52872;52.994;6.940;2023-01-13T15:56:48;6.30;;;1.90;;
66087;SDS011;52872;52.994;6.940;2023-01-13T15:59:15;8.85;;;2.00;;
66087;SDS011;52872;52.994;6.940;2023-01-13T16:01:45;10.23;;;2.35;;
66087;SDS011;52872;52.994;6.940;2023-01-13T16:04:12;7.65;;;2.28;;
66087;SDS011;52872;52.994;6.940;2023-01-13T16:06:39;8.82;;;1.67;;
66087;SDS011;52872;52.994;6.940;2023-01-13T16:09:06;8.02;;;2.28;;
66087;SDS011;52872;52.994;6.940;2023-01-13T16:11:36;8.57;;;1.98;;
66087;SDS011;52872;52.994;6.940;2023-01-13T16:14:03;7.57;;;2.10;;
66087;SDS011;52872;52.994;6.940;2023-01-13T16:16:30;9.88;;;2.35;;
66087;SDS011;52872;52.994;6.940;2023-01-13T16:18:57;6.65;;;2.00;;
66087;SDS011;52872;52.994;6.940;2023-01-13T16:21:25;8.95;;;1.92;;
66087;SDS011;52872;52.994;6.940;2023-01-13T16:23:52;5.30;;;1.50;;
66087;SDS011;52872;52.994;6.940;2023-01-13T16:26:23;6.70;;;1.65;;
66087;SDS011;52872;52.994;6.940;2023-01-13T16:28:58;5.88;;;1.70;;
66087;SDS011;52872;52.994;6.940;2023-01-13T16:31:26;7.00;;;1.80;;
66087;SDS011;52872;52.994;6.940;2023-01-13T16:33:57;6.00;;;1.55;;
66087;SDS011;52872;52.994;6.940;2023-01-13T16:36:26;7.93;;;1.70;;
66087;SDS011;52872;52.994;6.940;2023-01-13T16:38:54;4.72;;;1.42;;
66087;SDS011;52872;52.994;6.940;2023-01-13T16:41:21;3.95;;;0.95;;
66087;SDS011;52872;52.994;6.940;2023-01-13T16:43:50;3.22;;;1.00;;
66087;SDS011;52872;52.994;6.940;2023-01-13T16:46:27;3.33;;;0.98;;
66087;SDS011;52872;52.994;6.940;2023-01-13T16:48:55;4.45;;;1.20;;
66087;SDS011;52872;52.994;6.940;2023-01-13T16:51:27;3.15;;;0.98;;
66087;SDS011;52872;52.994;6.940;2023-01-13T16:53:54;6.40;;;1.50;;
66087;SDS011;52872;52.994;6.940;2023-01-13T16:58:48;4.45;;;1.27;;
66087;SDS011;52872;52.994;6.940;2023-01-13T17:01:17;9.40;;;1.85;;
66087;SDS011;52872;52.994;6.940;2023-01-13T17:03:51;5.78;;;1.10;;
66087;SDS011;52872;52.994;6.940;2023-01-13T17:06:22;6.40;;;2.08;;
66087;SDS011;52872;52.994;6.940;2023-01-13T17:08:52;6.18;;;1.67;;
66087;SDS011;52872;52.994;6.940;2023-01-13T17:11:20;8.40;;;2.20;;
66087;SDS011;52872;52.994;6.940;2023-01-13T17:13:47;7.15;;;1.92;;
66087;SDS011;52872;52.994;6.940;2023-01-13T17:16:15;11.43;;;2.40;;
66087;SDS011;52872;52.994;6.940;2023-01-13T17:18:43;8.82;;;1.98;;
66087;SDS011;52872;52.994;6.940;2023-01-13T17:21:13;8.90;;;2.40;;
66087;SDS011;52872;52.994;6.940;2023-01-13T17:23:40;12.95;;;2.20;;
66087;SDS011;52872;52.994;6.940;2023-01-13T17:26:26;5.93;;;1.70;;
66087;SDS011;52872;52.994;6.940;2023-01-13T17:28:58;9.85;;;2.17;;
66087;SDS011;52872;52.994;6.940;2023-01-13T17:31:26;9.15;;;2.15;;
66087;SDS011;52872;52.994;6.940;2023-01-13T17:33:54;8.35;;;1.80;;
66087;SDS011;52872;52.994;6.940;2023-01-13T17:36:21;11.30;;;1.88;;
66087;SDS011;52872;52.994;6.940;2023-01-13T17:38:50;8.57;;;2.30;;
66087;SDS011;52872;52.994;6.940;2023-01-13T17:41:17;8.32;;;2.03;;
66087;SDS011;52872;52.994;6.940;2023-01-13T17:43:44;11.75;;;1.98;;
66087;SDS011;52872;52.994;6.940;2023-01-13T17:46:12;11.45;;;2.30;;
66087;SDS011;52872;52.994;6.940;2023-01-13T17:48:47;10.27;;;1.67;;